Time;durP1;ratioP1;P1;durP2;ratioP2;P2;SDS_P1;SDS_P2;PMS_P1;PMS_P2;Temp;Humidity;BMP_temperature;BMP_pressure;BME280_temperature;BME280_humidity;BME280_pressure;Samples;Min_cycle;Max_cycle;Signal;HPM_P1;HPM_P2
2022/12/23 00:00:17;;;;;;;68.32;21.95;;;7.10;99.90;;;;;;5020245;28;20068;-89
2022/12/23 00:02:43;;;;;;;66.32;22.20;;;7.20;99.90;;;;;;5004241;28;20080;-90
2022/12/23 00:05:09;;;;;;;67.90;23.10;;;7.10;99.90;;;;;;5004301;28;20099;-90
2022/12/23 00:07:35;;;;;;;67.85;20.80;;;7.10;99.90;;;;;;5000097;28;20065;-90
2022/12/23 00:10:01;;;;;;;86.97;24.60;;;7.10;99.90;;;;;;4989355;28;20430;-89
2022/12/23 00:15:12;;;;;;;68.40;21.75;;;7.10;99.90;;;;;;5008770;28;20048;-90
2022/12/23 00:17:44;;;;;;;68.80;23.92;;;7.20;99.90;;;;;;4989198;28;20521;-90
2022/12/23 00:20:13;;;;;;;86.70;23.67;;;7.20;99.90;;;;;;5010125;28;20045;-89
2022/12/23 00:25:40;;;;;;;95.47;27.17;;;7.40;99.90;;;;;;5025001;28;20164;-89
2022/12/23 00:28:10;;;;;;;75.80;23.83;;;7.10;99.90;;;;;;5009700;28;20052;-90
2022/12/23 00:30:45;;;;;;;97.28;27.73;;;7.10;99.90;;;;;;5024353;28;20038;-90
2022/12/23 00:33:13;;;;;;;80.22;24.77;;;7.10;99.90;;;;;;5002029;28;20078;-90
2022/12/23 00:35:39;;;;;;;95.80;26.25;;;7.10;99.90;;;;;;5008829;28;20045;-90
2022/12/23 00:38:04;;;;;;;85.28;24.88;;;7.10;99.90;;;;;;5008771;28;20060;-90
2022/12/23 00:43:16;;;;;;;81.60;23.90;;;7.10;99.90;;;;;;4991531;28;20371;-89
2022/12/23 00:45:41;;;;;;;96.10;24.95;;;7.10;99.90;;;;;;5006008;28;20065;-90
2022/12/23 00:50:52;;;;;;;93.57;24.65;;;7.20;99.90;;;;;;5014495;28;20042;-89
2022/12/23 00:53:18;;;;;;;;;;;7.20;99.90;;;;;;4985576;28;20486;-89
2022/12/23 00:55:46;;;;;;;91.10;24.55;;;7.20;99.90;;;;;;5010502;28;19932;-90
2022/12/23 00:58:16;;;;;;;93.60;25.45;;;7.20;99.90;;;;;;5006117;28;20052;-89
2022/12/23 01:06:15;;;;;;;77.40;23.45;;;7.10;99.90;;;;;;5022023;28;20041;-89
2022/12/23 01:08:40;;;;;;;81.35;23.45;;;7.20;99.90;;;;;;5007283;28;20040;-89
2022/12/23 01:11:09;;;;;;;81.67;24.17;;;7.20;99.90;;;;;;4988703;28;20128;-90
2022/12/23 01:13:35;;;;;;;87.50;23.98;;;7.10;99.90;;;;;;5022844;28;20303;-89
2022/12/23 01:16:04;;;;;;;90.07;24.20;;;7.10;99.90;;;;;;4970950;28;20037;-89
2022/12/23 01:18:30;;;;;;;128.73;28.20;;;7.10;99.90;;;;;;5005726;28;20444;-89
2022/12/23 01:21:00;;;;;;;118.87;28.60;;;7.60;99.90;;;;;;5006027;28;20149;-89
2022/12/23 01:23:26;;;;;;;104.55;25.55;;;7.10;99.90;;;;;;4986713;28;20803;-89
2022/12/23 01:26:00;;;;;;;77.13;23.13;;;7.40;99.90;;;;;;5007068;28;20042;-89
2022/12/23 01:28:27;;;;;;;79.95;24.15;;;7.10;99.90;;;;;;5026053;28;20040;-89
2022/12/23 01:30:52;;;;;;;100.90;26.40;;;7.10;99.90;;;;;;4992295;28;20120;-89
2022/12/23 01:33:18;;;;;;;88.95;26.08;;;7.10;99.90;;;;;;4988850;28;20077;-89
2022/12/23 01:35:44;;;;;;;102.00;25.45;;;7.20;99.90;;;;;;5003535;28;20034;-89
2022/12/23 01:38:10;;;;;;;89.50;23.80;;;7.20;99.90;;;;;;5018920;28;20042;-89
2022/12/23 01:40:41;;;;;;;115.53;25.07;;;7.10;99.90;;;;;;4991222;28;20141;-88
2022/12/23 01:43:16;;;;;;;109.68;26.35;;;7.10;99.90;;;;;;5023892;28;20042;-89
2022/12/23 01:45:43;;;;;;;107.13;27.08;;;7.20;99.90;;;;;;5025854;28;20045;-89
2022/12/23 01:48:19;;;;;;;115.72;27.40;;;7.20;99.90;;;;;;5005782;28;20069;-89
2022/12/23 01:50:58;;;;;;;90.80;24.50;;;7.30;99.90;;;;;;5025872;28;20037;-89
2022/12/23 01:53:33;;;;;;;88.90;24.00;;;7.10;99.90;;;;;;5004978;28;20042;-89
2022/12/23 01:56:06;;;;;;;91.18;25.88;;;7.10;99.90;;;;;;5025201;28;20037;-89
2022/12/23 01:58:49;;;;;;;104.45;27.95;;;7.10;99.90;;;;;;5003923;28;20145;-90
2022/12/23 02:04:04;;;;;;;95.68;26.17;;;7.20;99.90;;;;;;5022404;28;20049;-89
2022/12/23 02:09:22;;;;;;;109.13;28.80;;;7.30;99.90;;;;;;5025210;28;20115;-89
2022/12/23 02:12:09;;;;;;;103.68;28.15;;;7.10;99.90;;;;;;5014168;28;20053;-89
2022/12/23 02:17:52;;;;;;;86.13;24.25;;;7.10;99.90;;;;;;5018176;28;20123;-88
2022/12/23 02:20:59;;;;;;;107.13;26.30;;;7.10;99.90;;;;;;5009251;28;20037;-89
2022/12/23 02:23:39;;;;;;;111.18;26.95;;;7.10;99.90;;;;;;4938432;28;20451;-89
2022/12/23 02:26:13;;;;;;;77.85;24.13;;;7.10;99.90;;;;;;4970221;28;20071;-89
2022/12/23 02:29:29;;;;;;;122.50;27.52;;;7.10;99.90;;;;;;4985401;28;20066;-88
2022/12/23 02:31:55;;;;;;;89.95;24.92;;;7.10;99.90;;;;;;5024533;28;20037;-89
2022/12/23 02:34:39;;;;;;;94.43;26.00;;;7.00;99.90;;;;;;5010797;28;20382;-88
2022/12/23 02:37:16;;;;;;;92.32;25.65;;;7.00;99.90;;;;;;5005661;28;20038;-89
2022/12/23 02:40:04;;;;;;;79.78;22.77;;;7.00;99.90;;;;;;5008792;28;20034;-88
2022/12/23 02:42:37;;;;;;;97.55;24.70;;;7.00;99.90;;;;;;5026974;28;20040;-89
2022/12/23 02:45:08;;;;;;;127.18;25.83;;;7.00;99.90;;;;;;5021727;28;20045;-89
2022/12/23 02:47:39;;;;;;;143.38;30.63;;;6.90;99.90;;;;;;5000636;28;20067;-89
2022/12/23 02:50:13;;;;;;;106.88;26.70;;;6.90;99.90;;;;;;5020666;28;20042;-89
2022/12/23 02:52:41;;;;;;;87.53;24.42;;;6.90;99.90;;;;;;5010974;28;20037;-89
2022/12/23 02:55:12;;;;;;;101.45;26.50;;;6.90;99.90;;;;;;5024776;28;20104;-89
2022/12/23 02:57:43;;;;;;;83.65;24.33;;;7.20;99.90;;;;;;5027159;28;20490;-89
2022/12/23 03:00:10;;;;;;;80.35;22.48;;;6.90;99.90;;;;;;5007314;28;20048;-89
2022/12/23 03:02:40;;;;;;;87.90;24.52;;;6.90;99.90;;;;;;5010278;28;20037;-89
2022/12/23 03:05:33;;;;;;;111.97;26.92;;;6.90;99.90;;;;;;5024492;28;20088;-89
2022/12/23 03:08:02;;;;;;;87.07;24.48;;;6.80;99.90;;;;;;5021691;28;20045;-90
2022/12/23 03:10:30;;;;;;;89.05;24.48;;;6.80;99.90;;;;;;5005627;28;20044;-89
2022/12/23 03:13:11;;;;;;;95.13;25.05;;;6.80;99.90;;;;;;5022601;28;20101;-90
2022/12/23 03:15:46;;;;;;;120.05;25.83;;;6.90;99.90;;;;;;5027454;28;20099;-89
2022/12/23 03:18:17;;;;;;;107.30;24.27;;;6.90;99.90;;;;;;5019366;28;20041;-89
2022/12/23 03:21:01;;;;;;;102.13;25.50;;;6.90;99.90;;;;;;5004577;28;20049;-89
2022/12/23 03:23:30;;;;;;;92.18;24.67;;;6.80;99.90;;;;;;5023642;28;20073;-90
2022/12/23 03:26:22;;;;;;;96.32;23.48;;;6.80;99.90;;;;;;5024922;28;20052;-89
2022/12/23 03:29:27;;;;;;;131.77;26.88;;;6.80;99.90;;;;;;5026254;28;20521;-89
2022/12/23 03:31:56;;;;;;;73.25;22.42;;;6.80;99.90;;;;;;4956233;28;20042;-89
2022/12/23 03:34:26;;;;;;;108.53;23.73;;;6.80;99.90;;;;;;4988234;28;20042;-89
2022/12/23 03:36:59;;;;;;;109.47;24.60;;;6.80;99.90;;;;;;5030468;28;20424;-89
2022/12/23 03:39:31;;;;;;;99.25;23.33;;;6.80;99.90;;;;;;5020178;28;20060;-89
2022/12/23 03:42:24;;;;;;;86.80;23.65;;;6.80;99.90;;;;;;5002666;28;20405;-89
2022/12/23 03:44:52;;;;;;;82.30;21.13;;;6.90;99.90;;;;;;5025153;28;20521;-89
2022/12/23 03:47:32;;;;;;;80.72;21.23;;;7.40;99.90;;;;;;5008007;28;20033;-89
2022/12/23 03:50:10;;;;;;;88.07;22.88;;;6.80;99.90;;;;;;5002509;28;20410;-90
2022/12/23 03:52:41;;;;;;;101.65;22.88;;;6.80;99.90;;;;;;5025143;28;20042;-90
2022/12/23 03:55:13;;;;;;;93.13;22.98;;;6.80;99.90;;;;;;5004018;28;20044;-89
2022/12/23 03:57:59;;;;;;;82.15;22.73;;;6.80;99.90;;;;;;5000644;28;20048;-90
2022/12/23 04:00:28;;;;;;;90.68;22.80;;;6.80;99.90;;;;;;5001184;28;20122;-89
2022/12/23 04:03:04;;;;;;;76.60;22.85;;;6.90;99.90;;;;;;4997701;28;20067;-88
2022/12/23 04:05:39;;;;;;;106.87;23.07;;;6.80;99.90;;;;;;5010615;28;20535;-88
2022/12/23 04:08:32;;;;;;;111.15;24.85;;;6.80;99.90;;;;;;5010705;28;20123;-89
2022/12/23 04:10:59;;;;;;;72.32;21.90;;;6.80;99.90;;;;;;5018976;28;20041;-89
2022/12/23 04:13:26;;;;;;;115.45;23.30;;;7.20;99.90;;;;;;4994386;28;20034;-89
2022/12/23 04:15:52;;;;;;;120.90;24.52;;;6.80;99.90;;;;;;4987838;28;20120;-89
2022/12/23 04:18:18;;;;;;;148.45;26.88;;;6.80;99.90;;;;;;5000990;28;20171;-89
2022/12/23 04:20:44;;;;;;;74.03;22.57;;;6.80;99.90;;;;;;4999189;28;20099;-89
2022/12/23 04:23:10;;;;;;;167.40;28.95;;;6.70;99.90;;;;;;5006011;28;20288;-89
2022/12/23 04:25:36;;;;;;;111.15;23.65;;;6.70;99.90;;;;;;5022379;28;20389;-88
2022/12/23 04:28:02;;;;;;;194.30;28.08;;;6.70;99.90;;;;;;5008177;28;20516;-89
2022/12/23 04:30:28;;;;;;;203.45;30.58;;;6.70;99.90;;;;;;5000246;28;20029;-89
2022/12/23 04:32:53;;;;;;;140.07;25.52;;;6.70;99.90;;;;;;4991496;28;20033;-89
2022/12/23 04:35:20;;;;;;;306.80;35.17;;;6.80;99.90;;;;;;4982024;28;20073;-89
2022/12/23 04:37:45;;;;;;;266.95;31.55;;;6.70;99.90;;;;;;4991065;28;21280;-88
2022/12/23 04:40:11;;;;;;;388.88;42.22;;;7.30;99.90;;;;;;5030282;28;20073;-89
2022/12/23 04:42:37;;;;;;;254.48;30.02;;;6.60;99.90;;;;;;4969127;28;20121;-88
2022/12/23 04:45:03;;;;;;;473.77;46.30;;;6.60;99.90;;;;;;4985696;28;20033;-88
2022/12/23 04:47:29;;;;;;;459.55;42.55;;;6.60;99.90;;;;;;5009472;28;20136;-89
2022/12/23 04:49:54;;;;;;;435.27;38.88;;;7.10;99.90;;;;;;4998711;28;20076;-88
2022/12/23 04:52:20;;;;;;;490.90;45.63;;;6.60;99.90;;;;;;5016080;28;20032;-88
2022/12/23 04:54:46;;;;;;;411.10;38.10;;;6.60;99.90;;;;;;4997219;28;20037;-88
2022/12/23 04:57:12;;;;;;;206.80;27.42;;;6.60;99.90;;;;;;5024031;28;20480;-89
2022/12/23 04:59:38;;;;;;;185.55;27.38;;;6.60;99.90;;;;;;5005778;28;20049;-89
2022/12/23 05:02:04;;;;;;;274.10;31.35;;;7.20;99.90;;;;;;5002602;28;20463;-88
2022/12/23 05:04:29;;;;;;;387.15;38.22;;;6.60;99.90;;;;;;4991056;28;20147;-89
2022/12/23 05:06:55;;;;;;;304.33;30.38;;;6.80;99.90;;;;;;4972981;28;20041;-89
2022/12/23 05:09:21;;;;;;;248.27;27.90;;;6.80;99.90;;;;;;4989538;28;20045;-89
2022/12/23 05:11:46;;;;;;;247.55;26.35;;;6.80;99.90;;;;;;4995219;28;20076;-89
2022/12/23 05:14:15;;;;;;;164.88;22.58;;;6.60;99.90;;;;;;5000439;28;20036;-89
2022/12/23 05:16:40;;;;;;;97.40;20.02;;;6.60;99.90;;;;;;4987293;28;20046;-89
2022/12/23 05:19:06;;;;;;;159.55;22.58;;;6.60;99.90;;;;;;5006691;28;20037;-89
2022/12/23 05:21:32;;;;;;;76.60;19.15;;;6.60;99.90;;;;;;5017815;28;20041;-89
2022/12/23 05:23:58;;;;;;;133.90;21.75;;;6.60;99.90;;;;;;5005921;28;20041;-89
2022/12/23 05:26:23;;;;;;;93.73;19.93;;;6.60;99.90;;;;;;4987862;28;20125;-89
2022/12/23 05:28:49;;;;;;;62.35;16.55;;;6.60;99.90;;;;;;5003647;28;20033;-88
2022/12/23 05:31:16;;;;;;;138.77;22.75;;;6.60;99.90;;;;;;5009581;28;20048;-88
2022/12/23 05:33:42;;;;;;;99.93;19.33;;;6.60;99.90;;;;;;4989594;28;20133;-89
2022/12/23 05:36:08;;;;;;;110.50;21.40;;;6.70;99.90;;;;;;5007405;28;20076;-89
2022/12/23 05:38:34;;;;;;;144.45;21.17;;;6.60;99.90;;;;;;5012653;28;20044;-89
2022/12/23 05:41:00;;;;;;;71.85;18.00;;;6.60;99.90;;;;;;5007954;28;20029;-89
2022/12/23 05:43:26;;;;;;;170.38;24.17;;;6.60;99.90;;;;;;5011216;28;20046;-89
2022/12/23 05:45:51;;;;;;;205.57;25.07;;;6.60;99.90;;;;;;4969997;28;20034;-89
2022/12/23 05:48:17;;;;;;;239.70;22.95;;;6.50;99.90;;;;;;4997490;28;20087;-89
2022/12/23 05:50:43;;;;;;;226.43;23.75;;;6.50;99.90;;;;;;5008380;28;20038;-89
2022/12/23 05:53:09;;;;;;;194.43;21.73;;;6.50;99.90;;;;;;4975728;28;20060;-89
2022/12/23 05:55:35;;;;;;;343.52;28.67;;;6.50;99.90;;;;;;4993379;28;20036;-89
2022/12/23 05:58:01;;;;;;;217.30;21.08;;;6.40;99.90;;;;;;4996184;28;20044;-88
2022/12/23 06:00:28;;;;;;;236.55;24.10;;;6.60;99.90;;;;;;5037095;28;20085;-89
2022/12/23 06:02:53;;;;;;;;;;;6.50;99.90;;;;;;4998198;28;20037;-89
2022/12/23 06:05:19;;;;;;;172.02;19.10;;;6.40;99.90;;;;;;5013509;28;19982;-89
2022/12/23 06:07:45;;;;;;;157.63;17.35;;;6.40;99.90;;;;;;4987749;28;20049;-89
2022/12/23 06:10:11;;;;;;;112.65;17.67;;;6.30;99.90;;;;;;4987707;28;20040;-87
2022/12/23 06:12:37;;;;;;;201.80;22.58;;;6.40;99.90;;;;;;5011713;28;20045;-90
2022/12/23 06:15:04;;;;;;;325.92;27.23;;;6.70;99.90;;;;;;5014711;28;20048;-89
2022/12/23 06:17:30;;;;;;;232.30;23.85;;;6.30;99.90;;;;;;4981755;28;20045;-88
2022/12/23 06:19:55;;;;;;;348.95;29.08;;;6.30;99.90;;;;;;4999690;28;20091;-89
2022/12/23 06:22:22;;;;;;;332.10;27.73;;;6.30;99.90;;;;;;5011461;28;20524;-88
2022/12/23 06:24:48;;;;;;;;;;;4.90;99.90;;;;;;4989750;28;20034;-93
2022/12/23 06:27:14;;;;;;;326.08;23.40;;;6.20;99.90;;;;;;5010532;28;19921;-93
2022/12/23 06:29:39;;;;;;;315.83;24.23;;;6.20;99.90;;;;;;4992113;28;20045;-92
2022/12/23 06:32:05;;;;;;;234.77;20.95;;;6.20;99.90;;;;;;5000084;28;20109;-92
2022/12/23 06:34:32;;;;;;;244.32;22.13;;;6.20;99.90;;;;;;5007480;28;20124;-93
2022/12/23 06:36:58;;;;;;;338.17;23.80;;;6.20;99.90;;;;;;5005144;28;20045;-93
2022/12/23 06:39:24;;;;;;;261.02;21.50;;;6.20;99.90;;;;;;4998705;28;20045;-93
2022/12/23 06:41:49;;;;;;;316.92;22.83;;;6.10;99.90;;;;;;4988763;28;20509;-87
2022/12/23 06:44:15;;;;;;;279.13;21.20;;;6.20;99.90;;;;;;4990878;28;20040;-84
2022/12/23 06:46:41;;;;;;;281.92;20.48;;;6.10;99.90;;;;;;5027178;28;20045;-87
2022/12/23 06:49:07;;;;;;;331.93;23.53;;;6.10;99.90;;;;;;5021877;28;20034;-83
2022/12/23 06:51:33;;;;;;;228.63;18.35;;;6.10;99.90;;;;;;5014165;28;20328;-87
2022/12/23 06:53:59;;;;;;;416.27;26.27;;;6.20;99.90;;;;;;5021544;28;20131;-87
2022/12/23 06:56:25;;;;;;;362.67;26.48;;;6.00;99.90;;;;;;5024282;28;20041;-87
2022/12/23 06:58:51;;;;;;;280.20;20.05;;;6.00;99.90;;;;;;5005363;28;20069;-87
2022/12/23 07:01:20;;;;;;;243.00;19.92;;;6.10;99.90;;;;;;5004994;28;20029;-87
2022/12/23 07:03:46;;;;;;;349.35;24.90;;;6.10;99.90;;;;;;5027091;28;20075;-87
2022/12/23 07:06:12;;;;;;;299.90;26.83;;;6.10;99.90;;;;;;5005955;28;20037;-87
2022/12/23 07:08:38;;;;;;;147.65;16.95;;;6.10;99.90;;;;;;5023604;28;20505;-86
2022/12/23 07:11:04;;;;;;;242.95;18.17;;;6.10;99.90;;;;;;5028880;28;20042;-87
2022/12/23 07:13:31;;;;;;;144.82;16.05;;;6.10;99.90;;;;;;5014585;28;20045;-88
2022/12/23 07:15:57;;;;;;;127.20;14.73;;;6.10;99.90;;;;;;5033627;28;20036;-87
2022/12/23 07:18:24;;;;;;;137.52;17.52;;;6.10;99.90;;;;;;5039440;28;20596;-87
2022/12/23 07:20:50;;;;;;;110.90;15.77;;;6.10;99.90;;;;;;5001911;28;20040;-86
2022/12/23 07:23:16;;;;;;;42.17;12.80;;;6.10;99.90;;;;;;5036917;28;20105;-86
2022/12/23 07:25:42;;;;;;;46.63;12.25;;;6.10;99.90;;;;;;5017816;28;20029;-86
2022/12/23 07:28:08;;;;;;;55.58;13.57;;;6.20;99.90;;;;;;5036808;28;20048;-87
2022/12/23 07:30:34;;;;;;;54.97;13.03;;;6.20;99.90;;;;;;5024668;28;20034;-87
2022/12/23 07:33:00;;;;;;;;;;;6.20;99.90;;;;;;5020852;28;20331;-87
2022/12/23 07:35:25;;;;;;;48.17;13.32;;;6.20;99.90;;;;;;5033379;28;19917;-87
2022/12/23 07:37:53;;;;;;;53.17;13.52;;;6.20;99.90;;;;;;5035452;28;20053;-86
2022/12/23 07:40:19;;;;;;;55.08;12.75;;;6.20;99.90;;;;;;5032652;28;20054;-83
2022/12/23 07:42:48;;;;;;;54.08;13.90;;;6.20;99.90;;;;;;5039012;28;20042;-87
2022/12/23 07:45:14;;;;;;;54.72;12.68;;;6.10;99.90;;;;;;5015882;28;20038;-87
2022/12/23 07:47:41;;;;;;;46.78;13.32;;;6.10;99.90;;;;;;5028472;28;20033;-88
2022/12/23 07:50:07;;;;;;;60.80;14.00;;;6.10;99.90;;;;;;5028390;28;20486;-87
2022/12/23 07:52:33;;;;;;;88.60;15.25;;;6.10;99.90;;;;;;5011565;28;20498;-87
2022/12/23 07:54:58;;;;;;;74.43;15.55;;;6.10;99.90;;;;;;4973126;28;20041;-86
2022/12/23 07:57:24;;;;;;;52.67;14.50;;;6.20;99.90;;;;;;4989146;28;20060;-88
2022/12/23 07:59:50;;;;;;;90.50;15.68;;;6.20;99.90;;;;;;5004442;28;20342;-88
2022/12/23 08:02:16;;;;;;;124.30;15.82;;;6.20;99.90;;;;;;4995388;28;20065;-88
2022/12/23 08:04:41;;;;;;;193.48;20.63;;;6.50;99.90;;;;;;4998504;28;20141;-85
2022/12/23 08:07:07;;;;;;;98.78;15.60;;;6.10;99.90;;;;;;5012821;28;20049;-88
2022/12/23 08:09:33;;;;;;;91.32;16.13;;;6.20;99.90;;;;;;5010756;28;20045;-88
2022/12/23 08:11:58;;;;;;;64.68;13.18;;;6.10;99.90;;;;;;5020846;28;20457;-88
2022/12/23 08:14:24;;;;;;;51.10;13.17;;;6.10;99.90;;;;;;5015936;28;21262;-87
2022/12/23 08:16:50;;;;;;;57.77;12.23;;;6.10;99.90;;;;;;4978387;28;20300;-88
2022/12/23 08:19:16;;;;;;;53.00;13.07;;;6.20;99.90;;;;;;5000732;28;20049;-87
2022/12/23 08:21:41;;;;;;;54.40;14.43;;;6.20;99.90;;;;;;5002237;28;20291;-87
2022/12/23 08:24:07;;;;;;;62.50;14.23;;;6.20;99.90;;;;;;5004247;28;20037;-88
2022/12/23 08:26:33;;;;;;;50.05;14.38;;;6.20;99.90;;;;;;5030348;28;20045;-87
2022/12/23 08:28:59;;;;;;;67.57;15.82;;;6.30;99.90;;;;;;5025817;28;20041;-85
2022/12/23 08:31:27;;;;;;;62.65;15.45;;;6.30;99.90;;;;;;4986180;28;20116;-87
2022/12/23 08:33:56;;;;;;;57.28;14.13;;;6.20;99.90;;;;;;4996176;28;20045;-87
2022/12/23 08:36:25;;;;;;;51.60;15.55;;;6.30;99.90;;;;;;5016823;28;20052;-88
2022/12/23 08:38:53;;;;;;;47.88;15.45;;;6.60;99.90;;;;;;5016689;28;20060;-87
2022/12/23 08:41:29;;;;;;;50.67;14.35;;;6.30;99.90;;;;;;4999358;28;20228;-88
2022/12/23 08:43:56;;;;;;;87.90;15.75;;;6.40;99.90;;;;;;5013441;28;20050;-87
2022/12/23 08:46:22;;;;;;;47.85;13.10;;;6.40;99.90;;;;;;4980802;28;20088;-88
2022/12/23 08:48:48;;;;;;;;;;;6.40;99.90;;;;;;5020257;28;20346;-87
2022/12/23 08:51:18;;;;;;;73.32;15.10;;;6.50;99.90;;;;;;5017979;28;19918;-88
2022/12/23 08:53:43;;;;;;;182.85;20.00;;;6.40;99.90;;;;;;4992608;28;20034;-88
2022/12/23 08:56:13;;;;;;;55.58;14.95;;;6.40;99.90;;;;;;5006599;28;20037;-88
2022/12/23 08:58:41;;;;;;;118.93;16.77;;;6.40;99.90;;;;;;4995908;28;20049;-88
2022/12/23 09:01:09;;;;;;;212.13;19.50;;;6.40;99.90;;;;;;5004198;28;20073;-88
2022/12/23 09:03:36;;;;;;;276.77;22.63;;;6.40;99.90;;;;;;4997692;28;20108;-88
2022/12/23 09:06:16;;;;;;;169.15;17.25;;;6.50;99.90;;;;;;5014804;28;20053;-88
2022/12/23 09:08:43;;;;;;;316.30;25.33;;;6.50;99.90;;;;;;5024950;28;20052;-87
2022/12/23 09:11:11;;;;;;;175.35;18.95;;;6.60;99.90;;;;;;5003163;28;20060;-88
2022/12/23 09:13:37;;;;;;;267.75;21.15;;;6.50;99.90;;;;;;5013640;28;20119;-88
2022/12/23 09:16:03;;;;;;;279.65;22.90;;;6.50;99.90;;;;;;4999818;28;20041;-88
2022/12/23 09:18:29;;;;;;;234.20;21.40;;;6.50;99.90;;;;;;4999591;28;20037;-85
2022/12/23 09:21:04;;;;;;;228.82;20.88;;;6.80;99.90;;;;;;5008964;28;20036;-87
2022/12/23 09:23:29;;;;;;;131.32;16.33;;;6.60;99.90;;;;;;5018879;28;20049;-87
2022/12/23 09:26:01;;;;;;;128.13;15.98;;;6.80;99.90;;;;;;5002512;28;20129;-87
2022/12/23 09:28:30;;;;;;;131.43;16.35;;;6.70;99.90;;;;;;4982808;28;20034;-87
2022/12/23 09:30:56;;;;;;;140.23;15.40;;;6.80;99.90;;;;;;4984246;28;20490;-87
2022/12/23 09:33:21;;;;;;;76.33;13.50;;;6.80;99.90;;;;;;5016840;28;20334;-88
2022/12/23 09:35:47;;;;;;;136.63;17.17;;;6.80;99.90;;;;;;4986045;28;20029;-87
2022/12/23 09:38:13;;;;;;;123.88;14.32;;;6.80;99.90;;;;;;5022017;28;20041;-88
2022/12/23 09:40:40;;;;;;;84.50;13.90;;;6.80;99.90;;;;;;5004955;28;20038;-88
2022/12/23 09:43:27;;;;;;;105.85;14.30;;;6.80;99.90;;;;;;5004736;28;20045;-88
2022/12/23 09:46:14;;;;;;;112.72;13.73;;;6.80;99.90;;;;;;5008990;28;20052;-88
2022/12/23 09:49:09;;;;;;;69.93;14.00;;;6.80;99.90;;;;;;5018380;28;20053;-88
2022/12/23 09:51:35;;;;;;;124.85;14.65;;;6.90;99.90;;;;;;5015432;28;20447;-86
2022/12/23 09:54:14;;;;;;;94.40;12.80;;;6.90;99.90;;;;;;5001425;28;20074;-88
2022/12/23 09:56:57;;;;;;;96.13;13.38;;;6.90;99.90;;;;;;5031660;28;20041;-88
2022/12/23 09:59:30;;;;;;;127.05;17.23;;;6.90;99.90;;;;;;5003172;28;20060;-87
2022/12/23 10:02:29;;;;;;;130.48;15.18;;;6.90;99.90;;;;;;5018460;28;20041;-88
2022/12/23 10:05:31;;;;;;;88.43;12.10;;;6.90;99.90;;;;;;5021735;28;20048;-87
2022/12/23 10:08:19;;;;;;;79.68;12.93;;;7.00;99.90;;;;;;5001249;28;20053;-87
2022/12/23 10:11:20;;;;;;;98.65;11.38;;;7.00;99.90;;;;;;5019129;28;20108;-87
2022/12/23 10:13:51;;;;;;;126.13;12.73;;;7.00;99.90;;;;;;5025762;28;20047;-87
2022/12/23 10:16:26;;;;;;;128.43;14.18;;;7.00;99.90;;;;;;5016430;28;20100;-87
2022/12/23 10:19:11;;;;;;;59.47;10.98;;;7.00;99.90;;;;;;5006375;28;20135;-85
2022/12/23 10:21:47;;;;;;;95.70;11.70;;;7.00;99.90;;;;;;5011975;28;20126;-87
2022/12/23 10:24:32;;;;;;;67.47;11.50;;;7.00;99.90;;;;;;5023301;28;20069;-87
2022/12/23 10:27:03;;;;;;;125.80;13.23;;;7.00;99.90;;;;;;5003933;28;20164;-87
2022/12/23 10:29:31;;;;;;;89.25;11.25;;;7.10;99.90;;;;;;5015072;28;20050;-87
2022/12/23 10:32:15;;;;;;;98.35;11.77;;;7.10;99.90;;;;;;5010839;28;20612;-87
2022/12/23 10:35:03;;;;;;;66.10;11.23;;;7.10;99.90;;;;;;5035940;28;20030;-87
2022/12/23 10:37:48;;;;;;;42.22;9.60;;;7.00;99.90;;;;;;5012788;28;20053;-86
2022/12/23 10:40:25;;;;;;;71.28;11.30;;;7.10;99.90;;;;;;5013400;28;20807;-87
2022/12/23 10:43:14;;;;;;;41.78;9.85;;;7.10;99.90;;;;;;5028511;28;20457;-87
2022/12/23 10:46:05;;;;;;;52.88;11.63;;;7.10;99.90;;;;;;5030947;28;20148;-87
2022/12/23 10:48:59;;;;;;;56.55;10.63;;;7.10;99.90;;;;;;5037041;28;20037;-86
2022/12/23 10:51:37;;;;;;;48.10;11.05;;;7.10;99.90;;;;;;5022755;28;20037;-86
2022/12/23 10:54:11;;;;;;;40.90;10.93;;;7.10;99.90;;;;;;5011461;28;20030;-88
2022/12/23 10:56:37;;;;;;;28.63;9.65;;;7.10;99.90;;;;;;5018605;28;20517;-88
2022/12/23 10:59:05;;;;;;;60.08;11.85;;;7.20;99.90;;;;;;5023317;28;20046;-86
2022/12/23 11:01:31;;;;;;;50.47;10.65;;;7.20;99.90;;;;;;5020092;28;20068;-88
2022/12/23 11:04:15;;;;;;;37.45;10.38;;;7.20;99.90;;;;;;5005984;28;20112;-88
2022/12/23 11:06:45;;;;;;;26.25;9.88;;;7.10;99.90;;;;;;5021876;28;20103;-86
2022/12/23 11:09:22;;;;;;;20.35;9.52;;;7.20;99.90;;;;;;5012065;28;20030;-87
2022/12/23 11:11:56;;;;;;;27.50;9.38;;;7.20;99.90;;;;;;5013938;28;20130;-86
2022/12/23 11:14:35;;;;;;;36.35;10.43;;;7.20;99.90;;;;;;5021249;28;20072;-86
2022/12/23 11:17:02;;;;;;;27.20;10.25;;;7.20;99.90;;;;;;5028660;28;20038;-85
2022/12/23 11:19:27;;;;;;;32.17;10.73;;;7.10;99.90;;;;;;5032203;28;20065;-86
2022/12/23 11:21:59;;;;;;;29.10;11.60;;;7.10;99.90;;;;;;4997420;28;20034;-87
2022/12/23 11:24:27;;;;;;;33.75;10.25;;;7.20;99.90;;;;;;5004685;28;20100;-87
2022/12/23 11:27:02;;;;;;;34.10;11.25;;;7.10;99.90;;;;;;5002774;28;20096;-86
2022/12/23 11:29:34;;;;;;;47.13;11.32;;;7.00;99.90;;;;;;5022222;28;20513;-88
2022/12/23 11:32:02;;;;;;;39.35;10.60;;;7.10;99.90;;;;;;5020424;28;20060;-86
2022/12/23 11:34:36;;;;;;;35.50;11.27;;;7.10;99.90;;;;;;4982409;28;20038;-87
2022/12/23 11:37:02;;;;;;;58.80;13.27;;;7.10;99.90;;;;;;5019243;28;20095;-87
2022/12/23 11:39:31;;;;;;;35.72;11.55;;;7.10;99.90;;;;;;5011729;28;20046;-87
2022/12/23 11:42:12;;;;;;;37.17;13.18;;;7.10;99.90;;;;;;5001619;28;20095;-84
2022/12/23 11:44:43;;;;;;;34.55;11.75;;;7.10;99.90;;;;;;5008433;28;20033;-85
2022/12/23 11:47:20;;;;;;;27.88;10.45;;;7.10;99.90;;;;;;5019487;28;20037;-87
2022/12/23 11:49:49;;;;;;;28.65;11.02;;;7.10;99.90;;;;;;5023228;28;20045;-88
2022/12/23 11:52:18;;;;;;;29.35;10.82;;;7.20;99.90;;;;;;5023168;28;20098;-91
2022/12/23 11:54:56;;;;;;;30.15;10.93;;;7.20;99.90;;;;;;5025323;28;20052;-88
2022/12/23 11:57:40;;;;;;;24.80;9.27;;;7.20;99.90;;;;;;5017018;28;20045;-89
2022/12/23 12:00:24;;;;;;;32.53;11.77;;;7.20;99.90;;;;;;5022908;28;20022;-89
2022/12/23 12:02:53;;;;;;;32.63;11.90;;;7.20;99.90;;;;;;5006702;28;20044;-89
2022/12/23 12:05:45;;;;;;;31.00;10.65;;;7.20;99.90;;;;;;5023055;28;20486;-88
2022/12/23 12:08:14;;;;;;;33.65;11.15;;;7.20;99.90;;;;;;5005697;28;20565;-90
2022/12/23 12:10:41;;;;;;;32.35;10.60;;;7.30;99.90;;;;;;5006478;28;20037;-89
2022/12/23 12:13:26;;;;;;;32.90;11.10;;;7.20;99.90;;;;;;5004083;28;20045;-88
2022/12/23 12:15:52;;;;;;;32.63;12.13;;;7.30;99.90;;;;;;5012045;28;20045;-89
2022/12/23 12:18:20;;;;;;;32.57;11.27;;;7.20;99.90;;;;;;5015321;28;20449;-89
2022/12/23 12:21:09;;;;;;;29.85;10.30;;;7.20;99.90;;;;;;5022008;28;20064;-89
2022/12/23 12:23:52;;;;;;;28.83;11.13;;;7.30;99.90;;;;;;5033967;28;20060;-89
2022/12/23 12:26:26;;;;;;;30.85;10.70;;;7.30;99.90;;;;;;5033273;28;20052;-88
2022/12/23 12:29:07;;;;;;;27.20;9.63;;;7.40;99.90;;;;;;5029410;28;20050;-90
2022/12/23 12:31:36;;;;;;;30.40;11.18;;;7.30;99.90;;;;;;5025628;28;20034;-90
2022/12/23 12:34:10;;;;;;;30.92;10.65;;;7.30;99.90;;;;;;5017003;28;20084;-86
2022/12/23 12:37:00;;;;;;;28.55;10.57;;;7.30;99.90;;;;;;5026896;28;20034;-88
2022/12/23 12:39:41;;;;;;;27.75;10.50;;;7.30;99.90;;;;;;5028412;28;20038;-86
2022/12/23 12:42:23;;;;;;;26.83;10.13;;;7.20;99.90;;;;;;5037406;28;20062;-86
2022/12/23 12:45:05;;;;;;;29.85;10.35;;;7.30;99.90;;;;;;5035065;28;20122;-86
2022/12/23 12:48:05;;;;;;;30.02;10.40;;;7.30;99.90;;;;;;5017573;28;20045;-89
2022/12/23 12:50:41;;;;;;;28.70;11.00;;;7.30;99.90;;;;;;5034460;28;20037;-90
2022/12/23 12:53:29;;;;;;;27.92;10.63;;;7.40;99.90;;;;;;5019123;28;20055;-79
2022/12/23 12:56:06;;;;;;;29.77;10.82;;;7.30;99.90;;;;;;5004652;28;20037;-80
2022/12/23 12:58:32;;;;;;;28.05;10.30;;;7.20;99.90;;;;;;5011054;28;20033;-80
2022/12/23 13:01:10;;;;;;;26.58;9.65;;;7.30;99.90;;;;;;4997086;28;20053;-80
2022/12/23 13:03:56;;;;;;;28.52;10.65;;;7.20;99.90;;;;;;5015096;28;20041;-80
2022/12/23 13:06:29;;;;;;;25.52;10.07;;;7.20;99.90;;;;;;5000510;28;20077;-80
2022/12/23 13:08:55;;;;;;;25.92;10.98;;;7.20;99.90;;;;;;5007811;28;20083;-80
2022/12/23 13:11:37;;;;;;;29.20;10.43;;;7.30;99.90;;;;;;5015169;28;20498;-80
2022/12/23 13:14:33;;;;;;;26.70;10.60;;;7.30;99.90;;;;;;5013245;28;20077;-88
2022/12/23 13:17:14;;;;;;;27.88;10.52;;;7.30;99.90;;;;;;4974063;28;20060;-88
2022/12/23 13:19:59;;;;;;;28.83;10.43;;;7.20;99.90;;;;;;5018751;28;20045;-88
2022/12/23 13:22:32;;;;;;;29.90;11.15;;;7.30;99.90;;;;;;5021178;28;20095;-88